Terminal Aerodrome Forecast
Issued by NWS

Home | Current Version | Previous Version | Text Only | Print | Product List | Glossary On
Versions: 1 2 3 4 5 6 7 8 9 10 11 12 13 14 15 16 17 18 19 20 21
317
FTUS43 KILX 302010 AAA
TAFBMI
TAF AMD
KBMI 302010Z 3020/0118 02011KT P6SM VCSH SCT009 OVC015
      TEMPO 3020/3022 BKN009
     FM010300 02007KT P6SM VCSH SCT003 OVC008
     FM010600 01005KT 3SM -DZ BR OVC003
     FM011600 33005KT 3SM BR OVC012=

USA.gov is the U.S. government's official web portal to all federal, state and local government web resources and services.